Time,TemperatureF,DewpointF,PressureIn,WindDirection,WindDirectionDegrees,WindSpeedMPH,WindSpeedGustMPH,Humidity,HourlyPrecipIn,Conditions,Clouds,dailyrainin,SolarRadiationWatts/m^2,SoftwareType,DateUTC
2013-01-26 00:02:00,-3.0,-9.0,-100.00,WSW,238,1.0,4.0,76,0.00,,,0.00,0.000000,,2013-01-26 06:02:00,
2013-01-26 00:32:00,-3.0,-9.0,-100.00,WSW,238,1.0,4.0,76,0.00,,,0.00,0.000000,,2013-01-26 06:32:00,
2013-01-26 00:42:00,-3.0,-9.0,-100.00,WSW,238,1.0,4.0,76,0.00,,,0.00,0.000000,,2013-01-26 06:42:00,
2013-01-26 00:52:00,-3.0,-9.0,-100.00,WSW,238,1.0,4.0,76,0.00,,,0.00,0.000000,,2013-01-26 06:52:00,
2013-01-26 01:02:00,1.0,-4.0,-100.00,NW,306,2.0,4.0,80,0.00,,,0.00,0.000000,,2013-01-26 07:02:00,
2013-01-26 01:33:00,1.0,-4.0,-100.00,NW,306,2.0,4.0,80,0.00,,,0.00,0.000000,,2013-01-26 07:33:00,
2013-01-26 01:42:00,1.0,-4.0,-100.00,NW,306,2.0,4.0,80,0.00,,,0.00,0.000000,,2013-01-26 07:42:00,
2013-01-26 01:52:00,1.0,-4.0,-100.00,NW,306,2.0,4.0,80,0.00,,,0.00,0.000000,,2013-01-26 07:52:00,
2013-01-26 02:02:00,-2.0,-8.0,-100.00,NNW,334,1.0,5.0,76,0.00,,,0.00,0.000000,,2013-01-26 08:02:00,
2013-01-26 02:32:00,-2.0,-8.0,-100.00,NNW,334,1.0,5.0,76,0.00,,,0.00,0.000000,,2013-01-26 08:32:00,
2013-01-26 02:42:00,-2.0,-8.0,-100.00,NNW,334,1.0,5.0,76,0.00,,,0.00,0.000000,,2013-01-26 08:42:00,
2013-01-26 02:54:00,-2.0,-8.0,-100.00,NNW,334,1.0,5.0,76,0.00,,,0.00,0.000000,,2013-01-26 08:54:00,
2013-01-26 03:32:00,-6.0,-12.0,-100.00,NNW,330,2.0,3.0,73,0.00,,,0.00,0.000000,,2013-01-26 09:32:00,
2013-01-26 03:42:00,-6.0,-12.0,-100.00,NNW,330,2.0,3.0,73,0.00,,,0.00,0.000000,,2013-01-26 09:42:00,
2013-01-26 03:52:00,-6.0,-12.0,-100.00,NNW,330,2.0,3.0,73,0.00,,,0.00,0.000000,,2013-01-26 09:52:00,
2013-01-26 04:01:00,-6.0,-12.0,-100.00,NNW,330,2.0,3.0,73,0.00,,,0.00,0.000000,,2013-01-26 10:01:00,
2013-01-26 04:32:00,-10.0,-17.0,-100.00,South,178,0.0,2.0,70,0.00,,,0.00,0.000000,,2013-01-26 10:32:00,
2013-01-26 04:42:00,-10.0,-17.0,-100.00,South,178,0.0,2.0,70,0.00,,,0.00,0.000000,,2013-01-26 10:42:00,
2013-01-26 04:52:00,-10.0,-17.0,-100.00,South,178,0.0,2.0,70,0.00,,,0.00,0.000000,,2013-01-26 10:52:00,
2013-01-26 05:01:00,-10.0,-17.0,-100.00,South,178,0.0,2.0,70,0.00,,,0.00,0.000000,,2013-01-26 11:01:00,
2013-01-26 05:02:00,-13.0,-20.0,-100.00,NE,43,0.0,2.0,71,0.00,,,0.00,0.000000,,2013-01-26 11:02:00,
2013-01-26 05:32:00,-13.0,-20.0,-100.00,NE,43,0.0,2.0,71,0.00,,,0.00,0.000000,,2013-01-26 11:32:00,
2013-01-26 05:42:00,-13.0,-20.0,-100.00,NE,43,0.0,2.0,71,0.00,,,0.00,0.000000,,2013-01-26 11:42:00,
2013-01-26 05:52:00,-13.0,-20.0,-100.00,NE,43,0.0,2.0,71,0.00,,,0.00,0.000000,,2013-01-26 11:52:00,
2013-01-26 06:02:00,-12.0,-19.0,-100.00,NW,318,1.0,2.0,69,0.00,,,0.00,0.000000,,2013-01-26 12:02:00,
2013-01-26 06:33:00,-12.0,-19.0,-100.00,NW,318,1.0,2.0,69,0.00,,,0.00,0.000000,,2013-01-26 12:33:00,
2013-01-26 06:42:00,-12.0,-19.0,-100.00,NW,318,1.0,2.0,69,0.00,,,0.00,0.000000,,2013-01-26 12:42:00,
2013-01-26 06:53:00,-12.0,-19.0,-100.00,NW,318,1.0,2.0,69,0.00,,,0.00,0.000000,,2013-01-26 12:53:00,
2013-01-26 07:02:00,-11.0,-18.0,-100.00,ENE,78,0.0,2.0,71,0.00,,,0.00,0.000000,,2013-01-26 13:02:00,
2013-01-26 07:33:00,-11.0,-18.0,-100.00,ENE,78,0.0,2.0,71,0.00,,,0.00,0.000000,,2013-01-26 13:33:00,
2013-01-26 07:42:00,-11.0,-18.0,-100.00,ENE,78,0.0,2.0,71,0.00,,,0.00,0.000000,,2013-01-26 13:42:00,
2013-01-26 07:53:00,-11.0,-18.0,-100.00,ENE,78,0.0,2.0,71,0.00,,,0.00,0.000000,,2013-01-26 13:53:00,
2013-01-26 08:02:00,-8.0,-15.0,-100.00,ESE,108,0.0,2.0,72,0.00,,,0.00,6.000000,,2013-01-26 14:02:00,
2013-01-26 08:32:00,-8.0,-15.0,-100.00,ESE,108,0.0,2.0,72,0.00,,,0.00,6.000000,,2013-01-26 14:32:00,
2013-01-26 08:43:00,-8.0,-15.0,-100.00,ESE,108,0.0,2.0,72,0.00,,,0.00,6.000000,,2013-01-26 14:43:00,
2013-01-26 08:53:00,-8.0,-15.0,-100.00,ESE,108,0.0,2.0,72,0.00,,,0.00,6.000000,,2013-01-26 14:53:00,
2013-01-26 09:02:00,0.0,-6.0,-100.00,SSW,213,0.0,2.0,76,0.00,,,0.00,64.000000,,2013-01-26 15:02:00,
2013-01-26 09:33:00,0.0,-6.0,-100.00,SSW,213,0.0,2.0,76,0.00,,,0.00,64.000000,,2013-01-26 15:33:00,
2013-01-26 09:43:00,0.0,-6.0,-100.00,SSW,213,0.0,2.0,76,0.00,,,0.00,64.000000,,2013-01-26 15:43:00,
2013-01-26 09:53:00,0.0,-6.0,-100.00,SSW,213,0.0,2.0,76,0.00,,,0.00,64.000000,,2013-01-26 15:53:00,
2013-01-26 10:02:00,16.0,8.0,-100.00,ESE,119,1.0,2.0,71,0.00,,,0.00,232.000000,,2013-01-26 16:02:00,
2013-01-26 10:33:00,16.0,8.0,-100.00,ESE,119,1.0,2.0,71,0.00,,,0.00,232.000000,,2013-01-26 16:33:00,
2013-01-26 10:43:00,16.0,8.0,-100.00,ESE,119,1.0,2.0,71,0.00,,,0.00,232.000000,,2013-01-26 16:43:00,
2013-01-26 10:53:00,16.0,8.0,-100.00,ESE,119,1.0,2.0,71,0.00,,,0.00,232.000000,,2013-01-26 16:53:00,
2013-01-26 11:02:00,20.0,8.0,-100.00,SE,137,4.0,8.0,60,0.00,,,0.00,404.000000,,2013-01-26 17:02:00,
2013-01-26 11:33:00,20.0,8.0,-100.00,SE,137,4.0,8.0,60,0.00,,,0.00,404.000000,,2013-01-26 17:33:00,
2013-01-26 11:42:00,20.0,8.0,-100.00,SE,137,4.0,8.0,60,0.00,,,0.00,404.000000,,2013-01-26 17:42:00,
2013-01-26 11:53:00,20.0,8.0,-100.00,SE,137,4.0,8.0,60,0.00,,,0.00,404.000000,,2013-01-26 17:53:00,
2013-01-26 12:02:00,19.0,7.0,-100.00,SSE,156,6.0,12.0,60,0.00,,,0.00,418.000000,,2013-01-26 18:02:00,
2013-01-26 12:33:00,19.0,7.0,-100.00,SSE,156,6.0,12.0,60,0.00,,,0.00,418.000000,,2013-01-26 18:33:00,
2013-01-26 12:42:00,19.0,7.0,-100.00,SSE,156,6.0,12.0,60,0.00,,,0.00,418.000000,,2013-01-26 18:42:00,
2013-01-26 12:53:00,19.0,7.0,-100.00,SSE,156,6.0,12.0,60,0.00,,,0.00,418.000000,,2013-01-26 18:53:00,
2013-01-26 13:02:00,19.0,7.0,-100.00,SSE,157,5.0,13.0,60,0.00,,,0.00,239.000000,,2013-01-26 19:02:00,
2013-01-26 13:22:00,19.0,7.0,-100.00,SSE,157,5.0,13.0,60,0.00,,,0.00,239.000000,,2013-01-26 19:22:00,
2013-01-26 13:33:00,19.0,7.0,-100.00,SSE,157,5.0,13.0,60,0.00,,,0.00,239.000000,,2013-01-26 19:33:00,
2013-01-26 13:43:00,19.0,7.0,-100.00,SSE,157,5.0,13.0,60,0.00,,,0.00,239.000000,,2013-01-26 19:43:00,
2013-01-26 13:53:00,19.0,7.0,-100.00,SSE,157,5.0,13.0,60,0.00,,,0.00,239.000000,,2013-01-26 19:53:00,
2013-01-26 14:02:00,20.0,8.0,-100.00,South,179,4.0,8.0,59,0.00,,,0.00,228.000000,,2013-01-26 20:02:00,
2013-01-26 14:32:00,20.0,8.0,-100.00,South,179,4.0,8.0,59,0.00,,,0.00,228.000000,,2013-01-26 20:32:00,
2013-01-26 14:42:00,20.0,8.0,-100.00,South,179,4.0,8.0,59,0.00,,,0.00,228.000000,,2013-01-26 20:42:00,
2013-01-26 14:52:00,20.0,8.0,-100.00,South,179,4.0,8.0,59,0.00,,,0.00,228.000000,,2013-01-26 20:52:00,
2013-01-26 15:23:00,18.0,6.0,-100.00,SSE,163,5.0,10.0,60,0.00,,,0.00,129.000000,,2013-01-26 21:23:00,
2013-01-26 15:32:00,18.0,6.0,-100.00,SSE,163,5.0,10.0,60,0.00,,,0.00,129.000000,,2013-01-26 21:32:00,
2013-01-26 15:43:00,18.0,6.0,-100.00,SSE,163,5.0,10.0,60,0.00,,,0.00,129.000000,,2013-01-26 21:43:00,
2013-01-26 15:52:00,18.0,6.0,-100.00,SSE,163,5.0,10.0,60,0.00,,,0.00,129.000000,,2013-01-26 21:52:00,
2013-01-26 16:01:00,18.0,6.0,-100.00,SSE,163,5.0,10.0,60,0.00,,,0.00,129.000000,,2013-01-26 22:01:00,
2013-01-26 16:32:00,18.0,7.0,-100.00,SSE,153,5.0,10.0,62,0.00,,,0.00,55.000000,,2013-01-26 22:32:00,
2013-01-26 16:42:00,18.0,7.0,-100.00,SSE,153,5.0,10.0,62,0.00,,,0.00,55.000000,,2013-01-26 22:42:00,
2013-01-26 16:52:00,18.0,7.0,-100.00,SSE,153,5.0,10.0,62,0.00,,,0.00,55.000000,,2013-01-26 22:52:00,
2013-01-26 17:01:00,18.0,7.0,-100.00,SSE,153,5.0,10.0,62,0.00,,,0.00,55.000000,,2013-01-26 23:01:00,
2013-01-26 17:02:00,17.0,6.0,-100.00,SSE,160,6.0,10.0,62,0.00,,,0.00,16.000000,,2013-01-26 23:02:00,
2013-01-26 17:22:00,17.0,6.0,-100.00,SSE,160,6.0,10.0,62,0.00,,,0.00,16.000000,,2013-01-26 23:22:00,
2013-01-26 17:33:00,17.0,6.0,-100.00,SSE,160,6.0,10.0,62,0.00,,,0.00,16.000000,,2013-01-26 23:33:00,
2013-01-26 17:42:00,17.0,6.0,-100.00,SSE,160,6.0,10.0,62,0.00,,,0.00,16.000000,,2013-01-26 23:42:00,
2013-01-26 17:52:00,17.0,6.0,-100.00,SSE,160,6.0,10.0,62,0.00,,,0.00,16.000000,,2013-01-26 23:52:00,
2013-01-26 18:32:00,17.0,7.0,-100.00,SE,136,5.0,12.0,64,0.00,,,0.00,0.000000,,2013-01-27 00:32:00,
2013-01-26 18:42:00,17.0,7.0,-100.00,SE,136,5.0,12.0,64,0.00,,,0.00,0.000000,,2013-01-27 00:42:00,
2013-01-26 18:52:00,17.0,7.0,-100.00,SE,136,5.0,12.0,64,0.00,,,0.00,0.000000,,2013-01-27 00:52:00,
2013-01-26 19:01:00,17.0,7.0,-100.00,SE,136,5.0,12.0,64,0.00,,,0.00,0.000000,,2013-01-27 01:01:00,
2013-01-26 19:32:00,16.0,7.0,-100.00,SE,138,4.0,9.0,67,0.00,,,0.00,0.000000,,2013-01-27 01:32:00,
2013-01-26 19:42:00,16.0,7.0,-100.00,SE,138,4.0,9.0,67,0.00,,,0.00,0.000000,,2013-01-27 01:42:00,
2013-01-26 19:52:00,16.0,7.0,-100.00,SE,138,4.0,9.0,67,0.00,,,0.00,0.000000,,2013-01-27 01:52:00,
2013-01-26 20:01:00,16.0,7.0,-100.00,SE,138,4.0,9.0,67,0.00,,,0.00,0.000000,,2013-01-27 02:01:00,
2013-01-26 20:02:00,17.0,7.0,-100.00,SSE,148,7.0,14.0,65,0.00,,,0.00,0.000000,,2013-01-27 02:02:00,
2013-01-26 20:22:00,17.0,7.0,-100.00,SSE,148,7.0,14.0,65,0.00,,,0.00,0.000000,,2013-01-27 02:22:00,
2013-01-26 20:32:00,17.0,7.0,-100.00,SSE,148,7.0,14.0,65,0.00,,,0.00,0.000000,,2013-01-27 02:32:00,
2013-01-26 20:42:00,17.0,7.0,-100.00,SSE,148,7.0,14.0,65,0.00,,,0.00,0.000000,,2013-01-27 02:42:00,
2013-01-26 20:52:00,17.0,7.0,-100.00,SSE,148,7.0,14.0,65,0.00,,,0.00,0.000000,,2013-01-27 02:52:00,
2013-01-26 21:32:00,16.0,6.0,-100.00,SSE,147,6.0,14.0,64,0.00,,,0.00,0.000000,,2013-01-27 03:32:00,
2013-01-26 21:42:00,16.0,6.0,-100.00,SSE,147,6.0,14.0,64,0.00,,,0.00,0.000000,,2013-01-27 03:42:00,
2013-01-26 21:52:00,16.0,6.0,-100.00,SSE,147,6.0,14.0,64,0.00,,,0.00,0.000000,,2013-01-27 03:52:00,
2013-01-26 22:01:00,16.0,6.0,-100.00,SSE,147,6.0,14.0,64,0.00,,,0.00,0.000000,,2013-01-27 04:01:00,
2013-01-26 22:02:00,16.0,6.0,-100.00,SSE,147,6.0,14.0,65,0.00,,,0.00,0.000000,,2013-01-27 04:02:00,
2013-01-26 22:32:00,16.0,6.0,-100.00,SSE,147,6.0,14.0,65,0.00,,,0.00,0.000000,,2013-01-27 04:32:00,
2013-01-26 22:42:00,16.0,6.0,-100.00,SSE,147,6.0,14.0,65,0.00,,,0.00,0.000000,,2013-01-27 04:42:00,
2013-01-26 22:52:00,16.0,6.0,-100.00,SSE,147,6.0,14.0,65,0.00,,,0.00,0.000000,,2013-01-27 04:52:00,
2013-01-26 23:22:00,17.0,7.0,-100.00,SSE,161,8.0,13.0,64,0.00,,,0.00,0.000000,,2013-01-27 05:22:00,
2013-01-26 23:32:00,17.0,7.0,-100.00,SSE,161,8.0,13.0,64,0.00,,,0.00,0.000000,,2013-01-27 05:32:00,
2013-01-26 23:42:00,17.0,7.0,-100.00,SSE,161,8.0,13.0,64,0.00,,,0.00,0.000000,,2013-01-27 05:42:00,
2013-01-26 23:52:00,17.0,7.0,-100.00,SSE,161,8.0,13.0,64,0.00,,,0.00,0.000000,,2013-01-27 05:52:00,